Weather History for Georgetown, SC

Change the Weather History Date:

Saturday, February 8, 2014

  Actual Average Record
Temperature  
Mean Temperature 41 °F -  
Max Temperature 50 °F 58 °F 64 °F (2012)
Min Temperature 32 °F 35 °F 32 °F (2014)
Degree Days  
Heating Degree Days 24    
Moisture  
Dew Point 38 °F    
Average Humidity 91    
Maximum Humidity 100    
Minimum Humidity 62    
Precipitation  
Precipitation 0.14 in - - ()
Sea Level Pressure  
Sea Level Pressure 30.20 in    
Wind  
Wind Speed 4 mph (NNE)    
Max Wind Speed 9 mph    
Max Gust Speed -    
Visibility 9 miles    
Events Rain    
Averages and records for this station are not official NWS values.
T = Trace of Precipitation, MM = Missing Value Source: NWS Daily Summary

Daily Weather History Graph

Daily Weather History Graph

Search for Another Location

Airport:

Trip Planner

Search our weather history database for the weather conditions in past years. The results will help you decide how hot, cold, wet, or windy it might be!

Date:

Astronomy

Feb. 08, 2014 Rise Set
Actual Time 7:07 AM EST 5:55 PM EST
Civil Twilight 6:41 AM EST 6:21 PM EST
Nautical Twilight 6:12 AM EST 6:50 PM EST
Astronomical Twilight 5:43 AM EST 7:19 PM EST
Moon 12:53 PM EST (2/8) 2:14 AM EST (2/8)
Length of Visible Light 11h 39m
Length of Day
10h 48m
Waxing Gibbous, 68% of the Moon is Illuminated
Feb 8
Waxing Gibbous
Feb 14
Full
Feb 22
Last Quarter
Mar 1
New
Mar 8
First Quarter

Hourly Weather History & Observations

Time (EST) Temp. Windchill Dew Point Humidity Pressure Visibility Wind Dir Wind Speed Gust Speed Precip Events Conditions
12:15 AM 35.6 °F - 35.6 °F 100% 30.27 in 10.0 mi Calm Calm - N/A   Clear
12:35 AM 35.6 °F - 35.6 °F 100% 30.26 in 10.0 mi Calm Calm - N/A   Scattered Clouds
12:55 AM 37.4 °F 34.9 °F 37.4 °F 100% 30.26 in 10.0 mi North 3.5 mph - N/A   Overcast
1:15 AM 37.4 °F 34.9 °F 37.4 °F 100% 30.25 in 10.0 mi NE 3.5 mph - N/A   Mostly Cloudy
1:35 AM 39.2 °F 37.0 °F 39.2 °F 100% 30.25 in 10.0 mi NE 3.5 mph - N/A   Mostly Cloudy
1:55 AM 41.0 °F 38.0 °F 41.0 °F 100% 30.24 in 10.0 mi NE 4.6 mph - N/A   Overcast
2:15 AM 41.0 °F 39.0 °F 41.0 °F 100% 30.23 in 10.0 mi NE 3.5 mph - N/A   Overcast
2:35 AM 41.0 °F 39.0 °F 41.0 °F 100% 30.22 in 10.0 mi NNE 3.5 mph - N/A   Overcast
2:55 AM 42.8 °F 41.1 °F 42.8 °F 100% 30.21 in 10.0 mi ENE 3.5 mph - N/A   Overcast
3:15 AM 42.8 °F 40.1 °F 42.8 °F 100% 30.21 in 10.0 mi NNE 4.6 mph - N/A   Overcast
3:35 AM 42.8 °F 40.1 °F 41.0 °F 93% 30.21 in 10.0 mi NNE 4.6 mph - N/A   Overcast
3:55 AM 42.8 °F 38.6 °F 41.0 °F 93% 30.20 in 10.0 mi North 6.9 mph - N/A   Overcast
4:15 AM 42.8 °F 39.3 °F 39.2 °F 87% 30.21 in 10.0 mi North 5.8 mph - N/A   Overcast
4:35 AM 42.8 °F 39.3 °F 39.2 °F 87% 30.21 in 10.0 mi North 5.8 mph - N/A   Overcast
4:55 AM 42.8 °F 38.6 °F 37.4 °F 81% 30.20 in 10.0 mi North 6.9 mph - N/A   Overcast
5:15 AM 42.8 °F 40.1 °F 37.4 °F 81% 30.21 in 10.0 mi East 4.6 mph - N/A   Overcast
5:35 AM 42.8 °F 39.3 °F 35.6 °F 76% 30.20 in 10.0 mi NNE 5.8 mph - N/A   Overcast
5:55 AM 41.0 °F 36.4 °F 35.6 °F 81% 30.19 in 10.0 mi NNE 6.9 mph - N/A   Overcast
6:15 AM 42.8 °F 39.3 °F 35.6 °F 76% 30.19 in 10.0 mi NE 5.8 mph - N/A   Overcast
6:35 AM 42.8 °F 41.1 °F 33.8 °F 70% 30.20 in 10.0 mi ENE 3.5 mph - N/A   Overcast
6:55 AM 41.0 °F 36.4 °F 37.4 °F 87% 30.20 in 10.0 mi North 6.9 mph - N/A Rain Light Rain
7:15 AM 41.0 °F 35.8 °F 37.4 °F 87% 30.21 in 10.0 mi North 8.1 mph - N/A   Overcast
7:35 AM 41.0 °F 35.8 °F 37.4 °F 87% 30.21 in 10.0 mi North 8.1 mph - N/A   Overcast
7:55 AM 41.0 °F 38.0 °F 35.6 °F 81% 30.22 in 10.0 mi NNE 4.6 mph - N/A   Overcast
8:15 AM 41.0 °F 36.4 °F 35.6 °F 81% 30.21 in 10.0 mi NE 6.9 mph - N/A Rain Light Rain
8:35 AM 41.0 °F 36.4 °F 37.4 °F 87% 30.21 in 10.0 mi NE 6.9 mph - N/A   Light Drizzle
8:55 AM 41.0 °F 35.8 °F 37.4 °F 87% 30.21 in 10.0 mi NNE 8.1 mph - N/A Rain Light Rain
9:15 AM 41.0 °F 36.4 °F 37.4 °F 87% 30.22 in 10.0 mi NE 6.9 mph - 0.01 in Rain Light Rain
9:35 AM 39.2 °F 34.2 °F 39.2 °F 100% 30.24 in 10.0 mi NNE 6.9 mph - 0.02 in Rain Light Rain
9:55 AM 39.2 °F 35.0 °F 39.2 °F 100% 30.24 in 7.0 mi NNE 5.8 mph - 0.06 in Rain Light Rain
10:15 AM 39.2 °F 35.9 °F 39.2 °F 100% 30.26 in 5.0 mi North 4.6 mph - 0.03 in Rain Rain
10:35 AM 39.2 °F 35.9 °F 39.2 °F 100% 30.28 in 5.0 mi North 4.6 mph - 0.05 in Rain Light Rain
10:55 AM 41.0 °F 38.0 °F 41.0 °F 100% 30.27 in 5.0 mi North 4.6 mph - 0.07 in Rain Light Rain
11:15 AM 41.0 °F 35.2 °F 41.0 °F 100% 30.23 in 7.0 mi NNE 9.2 mph - N/A Rain Rain
11:35 AM 41.0 °F 36.4 °F 41.0 °F 100% 30.24 in 10.0 mi NNE 6.9 mph - 0.01 in Rain Light Rain
11:55 AM 41.0 °F 35.8 °F 41.0 °F 100% 30.21 in 10.0 mi NNE 8.1 mph - 0.01 in   Overcast
12:15 PM 41.0 °F 35.8 °F 41.0 °F 100% 30.20 in 10.0 mi NE 8.1 mph - N/A   Overcast
12:35 PM 42.8 °F 38.0 °F 42.8 °F 100% 30.18 in 10.0 mi NE 8.1 mph - N/A   Overcast
12:55 PM 42.8 °F 38.0 °F 42.8 °F 100% 30.17 in 10.0 mi NNE 8.1 mph - N/A   Overcast
1:15 PM 44.6 °F 40.7 °F 42.8 °F 93% 30.18 in 10.0 mi North 6.9 mph - N/A   Overcast
1:35 PM 44.6 °F 41.4 °F 42.8 °F 93% 30.17 in 10.0 mi North 5.8 mph - N/A   Overcast
1:55 PM 44.6 °F 40.7 °F 42.8 °F 93% 30.14 in 10.0 mi North 6.9 mph - N/A   Overcast
2:15 PM 44.6 °F 39.7 °F 41.0 °F 87% 30.13 in 10.0 mi North 9.2 mph - N/A   Mostly Cloudy
2:35 PM 46.4 °F 41.9 °F 41.0 °F 81% 30.14 in 10.0 mi North 9.2 mph - N/A   Scattered Clouds
2:55 PM 48.2 °F - 41.0 °F 76% 30.13 in 10.0 mi North 8.1 mph - N/A   Scattered Clouds
3:15 PM 50.0 °F - 41.0 °F 71% 30.13 in 10.0 mi North 9.2 mph - N/A   Clear
3:35 PM 50.0 °F - 39.2 °F 66% 30.13 in 10.0 mi North 9.2 mph - N/A   Clear
3:55 PM 50.0 °F - 39.2 °F 66% 30.12 in 10.0 mi North 6.9 mph - N/A   Clear
4:15 PM 50.0 °F - 39.2 °F 66% 30.12 in 10.0 mi NNE 8.1 mph - N/A   Clear
4:35 PM 50.0 °F - 39.2 °F 66% 30.14 in 10.0 mi NNE 5.8 mph - N/A   Clear
4:55 PM 50.0 °F - 39.2 °F 66% 30.14 in 10.0 mi North 6.9 mph - N/A   Clear
5:15 PM 50.0 °F - 37.4 °F 62% 30.14 in 10.0 mi North 5.8 mph - N/A   Clear
5:35 PM 46.4 °F 45.2 °F 37.4 °F 71% 30.15 in 10.0 mi North 3.5 mph - N/A   Clear
5:55 PM 46.4 °F - 39.2 °F 76% 30.15 in 10.0 mi Calm Calm - N/A   Clear
6:15 PM 44.6 °F - 39.2 °F 81% 30.16 in 10.0 mi Calm Calm - N/A   Clear
6:35 PM 41.0 °F - 39.2 °F 93% 30.17 in 10.0 mi Calm Calm - N/A   Clear
6:55 PM 39.2 °F - 39.2 °F 100% 30.17 in 10.0 mi Calm Calm - N/A   Clear
7:15 PM 41.0 °F - 41.0 °F 100% 30.18 in 10.0 mi Calm Calm - N/A   Clear
7:35 PM 37.4 °F - 37.4 °F 100% 30.18 in 10.0 mi Calm Calm - N/A   Clear
7:55 PM 37.4 °F - 37.4 °F 100% 30.19 in 7.0 mi Calm Calm - N/A   Clear
8:15 PM 35.6 °F - 35.6 °F 100% 30.19 in 10.0 mi Calm Calm - N/A   Clear
8:35 PM 35.6 °F - 35.6 °F 100% 30.19 in 7.0 mi Calm Calm - N/A   Clear
8:55 PM 35.6 °F - 35.6 °F 100% 30.19 in 5.0 mi Calm Calm - N/A   Clear
9:15 PM 33.8 °F - 33.8 °F 100% 30.19 in 10.0 mi Calm Calm - N/A   Clear
9:35 PM 33.8 °F - 33.8 °F 100% 30.19 in 7.0 mi Calm Calm - N/A   Clear
9:55 PM 33.8 °F - 33.8 °F 100% 30.19 in 10.0 mi Calm Calm - N/A   Clear
10:15 PM 33.8 °F - 33.8 °F 100% 30.19 in 7.0 mi Calm Calm - N/A   Clear
10:35 PM 32.0 °F - 32.0 °F 100% 30.19 in 7.0 mi Calm Calm - N/A   Clear
10:55 PM 32.0 °F - 32.0 °F 100% 30.19 in 1.0 mi Calm Calm - N/A   Mist
11:15 PM 32.0 °F - 32.0 °F 100% 30.19 in 1.5 mi Calm Calm - N/A   Mist
11:35 PM 32.0 °F - 32.0 °F 100% 30.18 in 3.0 mi Calm Calm - N/A   Clear
11:55 PM 32.0 °F - 32.0 °F 100% 30.18 in 4.0 mi Calm Calm - N/A   Clear